18 a 25/6 - Fresco e inestable centro, cálido norte. Nevadas abundantes Cordillera y Patagonia.

Avatar de Usuario
Diecha
Mensajes: 15088
Registrado: Jue Ago 25, 2011 9:31 pm
Ubicación: Lomas de Zamora

Re: 18 a 25/6 - Fresco e inestable centro, cálido norte

Mensaje por Diecha » Sab Jun 20, 2020 7:25 pm


Avatar de Usuario
Ale de Castelar
Mensajes: 28376
Registrado: Sab Mar 03, 2012 12:25 pm
Ubicación: Caballito

Re: 18 a 25/6 - Fresco e inestable centro, cálido norte

Mensaje por Ale de Castelar » Sab Jun 20, 2020 7:34 pm

De la nada celda en zona norte GBA

Diluvia en Olivos

Danywilde
Mensajes: 2782
Registrado: Mar Ene 24, 2012 1:41 pm
Ubicación: Wilde, Buenos Aires

Re: 18 a 25/6 - Fresco e inestable centro, cálido norte

Mensaje por Danywilde » Sab Jun 20, 2020 7:39 pm

unas gotazas muy aisladas x 5 minutos. No más, acá, por ahora.

Avatar de Usuario
Ale de Castelar
Mensajes: 28376
Registrado: Sab Mar 03, 2012 12:25 pm
Ubicación: Caballito

Re: 18 a 25/6 - Fresco e inestable centro, cálido norte

Mensaje por Ale de Castelar » Sab Jun 20, 2020 7:40 pm

Cerro Otto


Avatar de Usuario
Fedex
Mensajes: 3174
Registrado: Jue Jul 17, 2014 3:30 pm
Ubicación: Villa Ballester, San Martin, Buenos Aires
Contactar:

Re: 18 a 25/6 - Fresco e inestable centro, cálido norte

Mensaje por Fedex » Sab Jun 20, 2020 7:54 pm

Muy intensa la actividad mirando hacia UY, de 1 flash cada 3 segundos.

Ninguna de esas llega, aunque si las de Zárate..
Cada vez que se superan los 24°C de Td, un gatito renace.

#MuerteALasLineas

El corazón late y es suficiente

Avatar de Usuario
Marcelo
Mensajes: 5982
Registrado: Jue Jul 30, 2009 3:42 pm
Ubicación: Villa Crespo, Ciudad de Buenos Aires

Re: 18 a 25/6 - Fresco e inestable centro, cálido norte

Mensaje por Marcelo » Sab Jun 20, 2020 7:59 pm

A la espera de los números de las oficiales a las 21.00, aquí las máximas más resonantes entre las EMAs en el norte.
Queda claro que el foco del desvío positivo histórica está en las inmediaciones de las ciudades de Resistencia y Corrientes.

Colonia Benítez, Cha: 34,5°C
Posta Zalazar, Fma: 34,2°C
P.N. Mburucuyá, Crt: 33,5°C
Pirané, Fma: 33,2°C
La Escondida, Cha: 33,0°C
Ibarreta, Fma: 33,0°C
Bella Vista, Crt: 32,7°C
P.N. Chaco: 32,6°C
La posta para lo que sucede en Buenos Aires la tiene la estación de AEROPARQUE.

Mis threads de Climatología:
Mapas Climáticos de Argentina
Temperaturas Extremas de Argentina
Nevadas en Sitios Inusuales

Avatar de Usuario
jcvq
Mensajes: 2601
Registrado: Vie Abr 02, 2010 1:24 pm
Ubicación: Olivos - Pcia de Buenos Aires

Re: 18 a 25/6 - Fresco e inestable centro, cálido norte

Mensaje por jcvq » Sab Jun 20, 2020 8:05 pm

Llueve en Recoleta
Saludos,
Julio

Avatar de Usuario
Diecha
Mensajes: 15088
Registrado: Jue Ago 25, 2011 9:31 pm
Ubicación: Lomas de Zamora

Re: 18 a 25/6 - Fresco e inestable centro, cálido norte

Mensaje por Diecha » Sab Jun 20, 2020 8:18 pm

- San Fernando 20 hs: SADF 202300Z 10009KT 9999 FEW045CB SCT050 BKN100 14/12 Q1009 RMK CB OBS TO NE
- Aeroparque 20 hs: SABE 202300Z 12013KT 9999 SCT050CB OVC065 14/11 Q1009
- Ezeiza 20 hs: SAEZ 202300Z 09009KT 9000 -TSRA FEW050CB OVC070 13/09 Q1009

Imagen
Imagen

Avatar de Usuario
Ezequiel1995
Mensajes: 1803
Registrado: Mar Nov 12, 2019 4:50 pm
Ubicación: Merlo, Buenos Aires
Contactar:

Re: 18 a 25/6 - Fresco e inestable centro, cálido norte

Mensaje por Ezequiel1995 » Sab Jun 20, 2020 8:43 pm

Bombazo!
#MuerteALasLineas (by Fedex)
Aplicación Gustfront! 2.5

facurg
Mensajes: 62
Registrado: Lun Dic 30, 2019 6:24 pm

Re: 18 a 25/6 - Fresco e inestable centro, cálido norte

Mensaje por facurg » Sab Jun 20, 2020 8:47 pm

Relámpagos hacía el oeste(Lanús)

Responder